الصفحة الرئيسية
METAR-TAF:

METAR-TAF

مطار :

باري, إيطاليا

دائرة عرض: 41-08N, خط طول: 016-47E, ارتفاع: 34 متر

مراقبة الطقس الحالي

تاريخ ووقت الإصدار 33 دقيقة قبل الساعة 00:20UTC
ريح 7 عقدة من الغرب/الجنوب الغربي
درجة الحرارة 9°درجة مئوية
الرطوبة 87%
ضغط 1014 hPa
الرؤية 10 كم أو أكثر

METAR: LIBD 290020Z AUTO 24007KT 9999 SCT083/// BKN110/// 09/07 Q1014

زمن: 01:53 (00:53 UTC)

توقعات

تاريخ ووقت الإصدار 7ساعات و 53 دقيقة قبل الساعة 17:00UTC
التوقعات صالحة من28 الساعة 18 UTC إلى 29 الساعة 18 UTC
ريح 5 عقدةمن اتجاهات متغيرة
الرؤية 10 كم أو أكثر
غيوم متفرقة على ارتفاع 3500 قدم
أصبح
من 29 الساعة 08 UTC إلى 29 الساعة 10 UTC
ريح 10 عقدة من الشمال/الشمال الشرقي

TAF: LIBD 281700Z 2818/2918 VRB05KT 9999 SCT035 BECMG 2908/2910 02010KT

أرصاد الطقس والتوقعات من أكثر من 4000 مطار (تقارير الطقس للمطار METAR والتنبؤ بالطقس بالمطارTAF).

المحطات المتاحة هي النقط الصفراء والحمراء على الخريطة.

حرك المؤشر فوق النقطة لمعرفة اسم المحطة.

ثم انقر لمعرفة أرصاد وتوقعات الطقس.

لتغيير الخارطة: اضغط على الأزرار الخضراء مع رمز الصليب الأسود للتكبير. على الزر الأخضر مع شرطة للتصغير، أو على الأسهم الخضراء للخرائط المجاورة.


METAR-TAF: